createdAt,value
2023-05-19T00:01:28.533Z,16.11
2023-05-19T00:04:15.066Z,16.08
2023-05-19T00:07:02.432Z,16.06
2023-05-19T00:09:48.273Z,16.05
2023-05-19T00:12:35.304Z,16.04
2023-05-19T00:15:20.838Z,16.03
2023-05-19T00:18:08.400Z,16.03
2023-05-19T00:20:54.121Z,16.02
2023-05-19T00:23:39.668Z,16.02
2023-05-19T00:26:27.249Z,16.04
2023-05-19T00:29:20.802Z,16.04
2023-05-19T00:32:06.812Z,16.04
2023-05-19T00:34:52.773Z,16.04
2023-05-19T00:37:38.455Z,16.05
2023-05-19T00:40:24.448Z,16.05
2023-05-19T00:43:10.011Z,16.03
2023-05-19T00:45:56.509Z,16.02
2023-05-19T00:48:44.170Z,16.02
2023-05-19T00:51:30.797Z,16.02
2023-05-19T00:54:16.367Z,16.00
2023-05-19T00:57:05.571Z,15.98
2023-05-19T00:59:51.696Z,15.97
2023-05-19T01:02:39.328Z,15.95
2023-05-19T01:05:25.825Z,15.94
2023-05-19T01:08:11.397Z,15.94
2023-05-19T01:10:57.376Z,15.93
2023-05-19T01:13:43.527Z,15.94
2023-05-19T01:16:30.366Z,15.94
2023-05-19T01:19:36.366Z,15.94
2023-05-19T01:22:42.320Z,15.94
2023-05-19T01:25:48.304Z,15.93
2023-05-19T01:28:40.216Z,15.93
2023-05-19T01:31:27.149Z,15.92
2023-05-19T01:34:15.871Z,15.93
2023-05-19T01:37:03.115Z,15.93
2023-05-19T01:39:50.151Z,15.91
2023-05-19T01:42:39.298Z,15.90
2023-05-19T01:45:27.933Z,15.88
2023-05-19T01:48:14.835Z,15.86
2023-05-19T01:51:00.499Z,15.84
2023-05-19T01:53:45.984Z,15.83
2023-05-19T01:56:54.978Z,15.83
2023-05-19T02:00:19.309Z,15.83
2023-05-19T02:03:12.231Z,15.82
2023-05-19T02:06:19.851Z,15.82
2023-05-19T02:09:11.411Z,15.83
2023-05-19T02:12:15.420Z,15.85
2023-05-19T02:15:11.359Z,15.84
2023-05-19T02:17:59.588Z,15.84
2023-05-19T02:20:45.241Z,15.83
2023-05-19T02:23:30.831Z,15.83
2023-05-19T02:26:16.645Z,15.82
2023-05-19T02:29:02.137Z,15.82
2023-05-19T02:31:48.015Z,15.82
2023-05-19T02:34:33.609Z,15.83
2023-05-19T02:37:18.827Z,15.82
2023-05-19T02:40:05.483Z,15.82
2023-05-19T02:42:51.110Z,15.82
2023-05-19T02:45:36.702Z,15.83
2023-05-19T02:48:23.260Z,15.82
2023-05-19T02:51:08.675Z,15.83
2023-05-19T02:53:54.412Z,15.83
2023-05-19T02:56:40.109Z,15.83
2023-05-19T02:59:25.872Z,15.84
2023-05-19T03:02:12.048Z,15.85
2023-05-19T03:04:57.598Z,15.84
2023-05-19T03:07:43.141Z,15.85
2023-05-19T03:10:28.784Z,15.89
2023-05-19T03:13:14.190Z,15.92
2023-05-19T03:16:01.483Z,15.94
2023-05-19T03:18:47.266Z,15.97
2023-05-19T03:21:34.029Z,16.00
2023-05-19T03:24:19.552Z,16.02
2023-05-19T03:27:05.340Z,16.05
2023-05-19T03:29:52.294Z,16.09
2023-05-19T03:32:38.334Z,16.14
2023-05-19T03:35:24.456Z,16.19
2023-05-19T03:38:10.138Z,16.22
2023-05-19T03:40:55.736Z,16.29
2023-05-19T03:43:41.460Z,16.34
2023-05-19T03:46:28.183Z,16.43
2023-05-19T03:49:25.777Z,16.51
2023-05-19T03:52:23.023Z,16.60
2023-05-19T03:55:15.824Z,16.68
2023-05-19T03:58:02.001Z,16.75
2023-05-19T04:00:48.406Z,16.85
2023-05-19T04:03:33.737Z,16.94
2023-05-19T04:06:21.761Z,17.04
2023-05-19T04:09:13.004Z,17.13
2023-05-19T04:11:58.511Z,17.24
2023-05-19T04:14:43.752Z,17.36
2023-05-19T04:17:30.028Z,17.47
2023-05-19T04:20:16.107Z,17.59
2023-05-19T04:23:01.625Z,17.71
2023-05-19T04:25:48.159Z,17.81
2023-05-19T04:28:36.141Z,17.92
2023-05-19T04:31:21.757Z,18.03
2023-05-19T04:34:09.497Z,18.16
2023-05-19T04:36:56.214Z,18.24
2023-05-19T04:40:01.652Z,18.34
2023-05-19T04:42:49.297Z,18.46
2023-05-19T04:45:37.076Z,18.58
2023-05-19T04:48:23.684Z,18.69
2023-05-19T04:51:09.751Z,18.81
2023-05-19T04:53:55.454Z,18.92
2023-05-19T04:56:41.538Z,19.02
2023-05-19T04:59:27.150Z,19.12
2023-05-19T05:02:17.713Z,19.22
2023-05-19T05:05:03.879Z,19.32
2023-05-19T05:07:50.168Z,19.41
2023-05-19T05:10:36.184Z,19.50
2023-05-19T05:13:23.546Z,19.59
2023-05-19T05:16:09.930Z,19.66
2023-05-19T05:18:56.918Z,19.74
2023-05-19T05:21:42.731Z,19.83
2023-05-19T05:24:28.568Z,19.92
2023-05-19T05:27:17.360Z,20.01
2023-05-19T05:30:04.896Z,20.10
2023-05-19T05:32:50.891Z,20.18
2023-05-19T05:35:54.954Z,20.26
2023-05-19T05:38:40.592Z,20.35
2023-05-19T05:41:26.837Z,20.42
2023-05-19T05:44:12.805Z,20.48
2023-05-19T05:47:00.417Z,20.56
2023-05-19T05:49:48.133Z,20.61
2023-05-19T05:52:36.670Z,20.66
2023-05-19T05:55:22.870Z,20.75
2023-05-19T05:58:10.697Z,20.84
2023-05-19T06:01:00.304Z,20.94
2023-05-19T06:03:46.258Z,21.05
2023-05-19T06:06:37.453Z,21.15
2023-05-19T06:09:23.417Z,21.25
2023-05-19T06:12:10.894Z,21.35
2023-05-19T06:15:07.437Z,21.45
2023-05-19T06:17:56.204Z,21.53
2023-05-19T06:20:41.802Z,21.64
2023-05-19T06:23:28.583Z,21.75
2023-05-19T06:26:14.887Z,21.83
2023-05-19T06:29:00.627Z,21.91
2023-05-19T06:35:05.020Z,22.03
2023-05-19T06:38:06.207Z,22.12
2023-05-19T06:40:51.828Z,22.18
2023-05-19T06:43:37.590Z,22.27
2023-05-19T06:46:23.249Z,22.39
2023-05-19T06:49:10.648Z,22.50
2023-05-19T06:51:58.616Z,22.62
2023-05-19T06:54:44.727Z,22.75
2023-05-19T06:57:30.574Z,22.88
2023-05-19T07:00:19.824Z,23.01
2023-05-19T07:03:10.319Z,23.14
2023-05-19T07:05:57.085Z,23.24
2023-05-19T07:08:44.256Z,23.36
2023-05-19T07:11:30.184Z,23.45
2023-05-19T07:14:17.672Z,23.55
2023-05-19T07:17:03.970Z,23.60
2023-05-19T07:19:50.560Z,23.70
2023-05-19T07:22:36.551Z,23.75
2023-05-19T07:25:23.190Z,23.85
2023-05-19T07:28:08.884Z,23.98
2023-05-19T07:30:54.940Z,24.08
2023-05-19T07:33:40.983Z,24.12
2023-05-19T07:36:27.964Z,24.17
2023-05-19T07:39:13.945Z,24.27
2023-05-19T07:41:59.663Z,24.35
2023-05-19T07:44:45.359Z,24.39
2023-05-19T07:47:45.408Z,24.46
2023-05-19T07:50:31.985Z,24.51
2023-05-19T07:53:19.730Z,24.56
2023-05-19T07:56:05.983Z,24.60
2023-05-19T07:58:51.802Z,24.66
2023-05-19T08:01:38.970Z,24.70
2023-05-19T08:04:29.205Z,24.73
2023-05-19T08:07:15.016Z,24.85
2023-05-19T08:10:00.396Z,24.93
2023-05-19T08:12:46.988Z,24.98
2023-05-19T08:15:36.314Z,25.07
2023-05-19T08:18:28.027Z,25.14
2023-05-19T08:21:13.523Z,25.23
2023-05-19T08:24:17.522Z,25.29
2023-05-19T08:27:27.350Z,25.40
2023-05-19T08:30:12.968Z,25.48
2023-05-19T08:32:58.607Z,25.54
2023-05-19T08:35:44.503Z,25.66
2023-05-19T08:38:33.185Z,25.79
2023-05-19T08:41:22.909Z,25.86
2023-05-19T08:44:08.688Z,25.89
2023-05-19T08:46:55.613Z,25.92
2023-05-19T08:49:49.273Z,26.04
2023-05-19T08:52:46.858Z,26.12
2023-05-19T08:55:54.994Z,26.20
2023-05-19T08:58:54.248Z,26.24
2023-05-19T09:01:44.990Z,26.24
2023-05-19T09:04:31.652Z,26.27
2023-05-19T09:07:19.004Z,26.37
2023-05-19T09:10:08.351Z,26.48
2023-05-19T09:12:55.063Z,26.59
2023-05-19T09:15:42.390Z,26.61
2023-05-19T09:18:28.814Z,26.58
2023-05-19T09:21:15.105Z,26.59
2023-05-19T09:24:06.553Z,26.67
2023-05-19T09:26:57.724Z,26.64
2023-05-19T09:29:44.888Z,26.63
2023-05-19T09:32:31.034Z,26.67
2023-05-19T09:35:20.946Z,26.73
2023-05-19T09:38:10.966Z,26.85
2023-05-19T09:41:03.356Z,26.96
2023-05-19T09:43:55.752Z,27.02
2023-05-19T09:46:52.213Z,27.08
2023-05-19T09:49:48.242Z,27.11
2023-05-19T09:52:44.157Z,27.07
2023-05-19T09:55:32.761Z,27.08
2023-05-19T09:58:18.547Z,27.23
2023-05-19T10:01:04.733Z,27.33
2023-05-19T10:03:52.756Z,27.42
2023-05-19T10:06:42.080Z,27.52
2023-05-19T10:09:29.499Z,27.59
2023-05-19T10:12:17.517Z,27.52
2023-05-19T10:15:11.116Z,27.52
2023-05-19T10:17:57.112Z,27.56
2023-05-19T10:20:43.810Z,27.65
2023-05-19T10:23:29.966Z,27.73
2023-05-19T10:26:16.026Z,27.79
2023-05-19T10:29:04.554Z,27.86
2023-05-19T10:31:52.314Z,28.00
2023-05-19T10:34:49.768Z,27.95
2023-05-19T10:37:50.595Z,27.96
2023-05-19T10:40:52.930Z,28.00
2023-05-19T10:43:50.910Z,28.07
2023-05-19T10:46:37.343Z,28.22
2023-05-19T10:49:24.124Z,28.19
2023-05-19T10:52:25.272Z,28.18
2023-05-19T10:55:17.019Z,28.10
2023-05-19T10:58:03.150Z,28.15
2023-05-19T11:01:00.557Z,28.31
2023-05-19T11:03:51.525Z,28.40
2023-05-19T11:06:39.765Z,28.42
2023-05-19T11:09:37.806Z,28.33
2023-05-19T11:12:25.624Z,28.26
2023-05-19T11:15:13.341Z,28.32
2023-05-19T11:18:01.333Z,28.34
2023-05-19T11:20:57.767Z,28.44
2023-05-19T11:23:43.532Z,28.49
2023-05-19T11:26:44.647Z,28.44
2023-05-19T11:29:32.822Z,28.35
2023-05-19T11:32:21.329Z,28.35
2023-05-19T11:35:08.243Z,28.41
2023-05-19T11:37:56.952Z,28.51
2023-05-19T11:40:43.501Z,28.52
2023-05-19T11:43:29.363Z,28.65
2023-05-19T11:46:19.173Z,28.76
2023-05-19T11:49:05.247Z,28.80
2023-05-19T11:51:51.004Z,28.68
2023-05-19T11:54:38.767Z,28.60
2023-05-19T11:57:24.468Z,28.59
2023-05-19T12:00:11.964Z,28.62
2023-05-19T12:02:57.523Z,28.70
2023-05-19T12:05:45.820Z,28.85
2023-05-19T12:08:35.846Z,29.10
2023-05-19T12:11:22.888Z,29.42
2023-05-19T12:14:09.147Z,29.79
2023-05-19T12:16:55.125Z,29.94
2023-05-19T12:20:26.442Z,30.05
2023-05-19T12:23:41.001Z,30.14
2023-05-19T12:26:52.054Z,30.37
2023-05-19T12:29:52.297Z,30.54
2023-05-19T12:32:38.564Z,30.67
2023-05-19T12:35:34.171Z,30.74
2023-05-19T12:38:20.795Z,30.97
2023-05-19T12:41:07.038Z,31.18
2023-05-19T12:43:54.896Z,31.39
2023-05-19T12:46:40.457Z,31.52
2023-05-19T12:49:26.238Z,31.72
2023-05-19T12:52:13.323Z,31.74
2023-05-19T12:55:07.256Z,31.95
2023-05-19T12:57:56.460Z,32.26
2023-05-19T13:00:44.643Z,32.47
2023-05-19T13:03:30.357Z,32.62
2023-05-19T13:06:15.822Z,32.82
2023-05-19T13:09:01.076Z,32.85
2023-05-19T13:11:54.213Z,33.02
2023-05-19T13:14:42.180Z,33.26
2023-05-19T13:17:28.093Z,33.42
2023-05-19T13:20:13.892Z,33.39
2023-05-19T13:22:59.929Z,33.47
2023-05-19T13:25:50.952Z,33.44
2023-05-19T13:28:36.752Z,33.54
2023-05-19T13:31:22.764Z,33.72
2023-05-19T13:34:08.885Z,33.82
2023-05-19T13:36:55.031Z,33.88
2023-05-19T13:39:40.945Z,34.17
2023-05-19T13:42:27.501Z,34.45
2023-05-19T13:45:14.657Z,34.50
2023-05-19T13:48:02.095Z,34.41
2023-05-19T13:50:47.714Z,34.37
2023-05-19T13:53:34.103Z,34.30
2023-05-19T13:56:19.868Z,34.28
2023-05-19T13:59:05.122Z,34.36
2023-05-19T14:01:50.684Z,34.48
2023-05-19T14:04:38.296Z,34.57
2023-05-19T14:07:31.466Z,34.67
2023-05-19T14:14:14.813Z,34.80
2023-05-19T14:21:08.020Z,35.16
2023-05-19T14:23:53.417Z,35.32
2023-05-19T14:26:38.899Z,35.31
2023-05-19T14:29:24.731Z,35.27
2023-05-19T14:32:10.648Z,35.10
2023-05-19T14:34:57.959Z,35.34
2023-05-19T14:37:43.571Z,35.45
2023-05-19T14:40:29.111Z,35.59
2023-05-19T14:43:20.167Z,35.66
2023-05-19T14:46:05.745Z,35.59
2023-05-19T14:48:51.491Z,35.51
2023-05-19T14:51:39.269Z,35.49
2023-05-19T14:54:24.955Z,35.45
2023-05-19T14:57:10.702Z,35.43
2023-05-19T14:59:56.494Z,35.41
2023-05-19T15:02:41.924Z,35.63
2023-05-19T15:05:27.769Z,35.66
2023-05-19T15:08:13.574Z,35.63
2023-05-19T15:10:59.431Z,35.52
2023-05-19T15:13:46.340Z,35.42
2023-05-19T15:16:32.684Z,35.23
2023-05-19T15:19:21.117Z,35.16
2023-05-19T15:22:08.099Z,34.69
2023-05-19T15:24:56.167Z,33.80
2023-05-19T15:27:44.929Z,33.07
2023-05-19T15:30:31.976Z,32.18
2023-05-19T15:33:17.623Z,31.51
2023-05-19T15:36:05.027Z,30.69
2023-05-19T15:38:50.812Z,30.23
2023-05-19T15:41:36.435Z,29.81
2023-05-19T15:44:21.905Z,29.49
2023-05-19T15:47:07.118Z,29.13
2023-05-19T15:49:52.655Z,28.77
2023-05-19T15:52:37.964Z,28.30
2023-05-19T15:55:23.776Z,27.70
2023-05-19T15:58:09.696Z,27.30
2023-05-19T16:00:55.838Z,27.01
2023-05-19T16:03:42.952Z,26.77
2023-05-19T16:06:28.986Z,26.56
2023-05-19T16:09:14.518Z,26.34
2023-05-19T16:12:02.335Z,26.27
2023-05-19T16:14:47.601Z,26.14
2023-05-19T16:17:44.390Z,26.01
2023-05-19T16:21:06.741Z,25.87
2023-05-19T16:31:34.096Z,25.56
2023-05-19T16:34:59.394Z,25.37
2023-05-19T16:38:25.656Z,25.25
2023-05-19T16:41:50.173Z,25.17
2023-05-19T16:48:35.606Z,24.88
2023-05-19T16:51:33.420Z,24.80
2023-05-19T16:54:54.374Z,24.70
2023-05-19T16:58:10.990Z,24.59
2023-05-19T17:04:45.980Z,24.30
2023-05-19T17:08:14.711Z,24.17
2023-05-19T17:11:23.236Z,24.03
2023-05-19T17:14:15.976Z,23.90
2023-05-19T17:17:01.637Z,23.82
2023-05-19T17:19:47.902Z,23.75
2023-05-19T17:22:33.986Z,23.64
2023-05-19T17:25:19.911Z,23.58
2023-05-19T17:28:13.171Z,23.46
2023-05-19T17:31:49.416Z,23.35
2023-05-19T17:41:19.456Z,23.21
2023-05-19T17:44:06.370Z,23.17
2023-05-19T17:46:52.217Z,23.09
2023-05-19T17:50:01.781Z,23.00
2023-05-19T17:52:48.345Z,22.93
2023-05-19T17:55:35.131Z,22.87
2023-05-19T18:01:25.324Z,22.73
2023-05-19T18:11:35.978Z,22.59
2023-05-19T18:18:11.217Z,22.51
2023-05-19T18:21:13.646Z,22.50
2023-05-19T18:24:26.282Z,22.46
2023-05-19T18:27:35.672Z,22.43
2023-05-19T18:42:00.240Z,22.13
2023-05-19T18:44:55.409Z,22.09
2023-05-19T18:47:57.410Z,22.08
2023-05-19T18:54:28.367Z,21.99
2023-05-19T18:57:14.608Z,21.94
2023-05-19T19:00:03.679Z,21.90
2023-05-19T19:02:49.007Z,21.86
2023-05-19T19:05:34.852Z,21.80
2023-05-19T19:08:20.870Z,21.75
2023-05-19T19:11:10.058Z,21.70
2023-05-19T19:20:31.856Z,21.47
2023-05-19T19:23:20.139Z,21.42
2023-05-19T19:26:08.769Z,21.35
2023-05-19T19:28:55.765Z,21.26
2023-05-19T19:31:41.738Z,21.15
2023-05-19T19:35:01.112Z,21.03
2023-05-19T19:41:31.777Z,20.80
2023-05-19T19:48:41.341Z,20.57
2023-05-19T19:55:31.492Z,20.46
2023-05-19T20:01:45.570Z,20.29
2023-05-19T20:04:31.896Z,20.24
2023-05-19T20:07:20.195Z,20.18
2023-05-19T20:10:07.683Z,20.17
2023-05-19T20:12:53.174Z,20.15
2023-05-19T20:15:38.499Z,20.12
2023-05-19T20:18:25.200Z,20.11
2023-05-19T20:21:10.994Z,20.10
2023-05-19T20:23:56.420Z,20.08
2023-05-19T20:26:41.810Z,20.07
2023-05-19T20:29:27.862Z,20.07
2023-05-19T20:36:07.164Z,20.09
2023-05-19T20:43:06.136Z,20.14
2023-05-19T20:45:51.792Z,20.16
2023-05-19T20:48:37.692Z,20.20
2023-05-19T20:54:48.014Z,20.26
2023-05-19T21:01:08.417Z,20.32
2023-05-19T21:07:56.628Z,20.34
2023-05-19T21:11:01.809Z,20.33
2023-05-19T21:14:09.388Z,20.31
2023-05-19T21:20:32.304Z,20.25
2023-05-19T21:23:26.481Z,20.21
2023-05-19T21:26:12.074Z,20.20
2023-05-19T21:32:40.735Z,20.15
2023-05-19T21:35:54.026Z,20.12
2023-05-19T21:38:55.402Z,20.11
2023-05-19T21:41:41.774Z,20.07
2023-05-19T21:44:28.029Z,20.04
2023-05-19T21:51:43.041Z,19.97
2023-05-19T21:54:28.889Z,19.91
2023-05-19T21:57:14.374Z,19.90
2023-05-19T22:00:00.007Z,19.88
2023-05-19T22:03:00.872Z,19.86
2023-05-19T22:05:51.279Z,19.85
2023-05-19T22:08:36.910Z,19.84
2023-05-19T22:11:23.169Z,19.86
2023-05-19T22:14:11.463Z,19.86
2023-05-19T22:16:59.855Z,19.86
2023-05-19T22:19:47.036Z,19.82
2023-05-19T22:33:51.397Z,19.77
2023-05-19T22:39:53.319Z,19.73
2023-05-19T22:43:02.778Z,19.71
2023-05-19T22:45:48.123Z,19.69
2023-05-19T22:48:45.431Z,19.70
2023-05-19T22:51:31.454Z,19.70
2023-05-19T22:54:20.340Z,19.70
2023-05-19T22:57:05.870Z,19.69
2023-05-19T22:59:51.597Z,19.68
2023-05-19T23:06:31.049Z,19.65
2023-05-19T23:12:22.269Z,19.62
2023-05-19T23:15:17.158Z,19.63
2023-05-19T23:18:06.572Z,19.63
2023-05-19T23:24:07.046Z,19.61
2023-05-19T23:30:30.922Z,19.58
2023-05-19T23:33:16.541Z,19.56
2023-05-19T23:36:07.184Z,19.57
2023-05-19T23:38:52.876Z,19.53
2023-05-19T23:41:38.316Z,19.46
2023-05-19T23:44:23.748Z,19.37
2023-05-19T23:47:09.412Z,19.32
2023-05-19T23:49:55.073Z,19.29
2023-05-19T23:52:40.330Z,19.24
2023-05-19T23:55:25.565Z,19.19
2023-05-19T23:58:11.060Z,19.15
